createdAt,value
2018-01-08T00:00:05.671Z,5.68
2018-01-08T00:01:05.661Z,5.68
2018-01-08T00:02:05.652Z,5.69
2018-01-08T00:03:26.672Z,5.69
2018-01-08T00:04:05.633Z,5.64
2018-01-08T00:05:05.629Z,5.54
2018-01-08T00:06:05.619Z,5.54
2018-01-08T00:07:05.612Z,5.54
2018-01-08T00:08:05.648Z,5.65
2018-01-08T00:09:26.604Z,5.56
2018-01-08T00:10:05.589Z,5.56
2018-01-08T00:11:05.594Z,5.64
2018-01-08T00:12:05.571Z,5.66
2018-01-08T00:13:05.561Z,5.68
2018-01-08T00:14:05.556Z,5.57
2018-01-08T00:15:26.548Z,5.57
2018-01-08T00:16:05.538Z,5.64
2018-01-08T00:17:05.530Z,5.66
2018-01-08T00:18:05.524Z,5.69
2018-01-08T00:19:05.518Z,5.68
2018-01-08T00:20:05.507Z,5.66
2018-01-08T00:21:26.507Z,5.69
2018-01-08T00:22:05.492Z,5.66
2018-01-08T00:23:05.485Z,5.65
2018-01-08T00:24:05.472Z,5.65
2018-01-08T00:25:05.465Z,5.61
2018-01-08T00:26:05.455Z,5.69
2018-01-08T00:27:26.455Z,5.64
2018-01-08T00:28:05.444Z,5.53
2018-01-08T00:29:05.433Z,5.51
2018-01-08T00:30:05.426Z,5.51
2018-01-08T00:31:05.420Z,5.51
2018-01-08T00:32:05.407Z,5.54
2018-01-08T00:33:26.408Z,5.64
2018-01-08T00:34:05.395Z,5.59
2018-01-08T00:35:05.386Z,5.61
2018-01-08T00:36:05.372Z,5.57
2018-01-08T00:37:05.367Z,5.57
2018-01-08T00:38:05.363Z,5.53
2018-01-08T00:39:26.359Z,5.53
2018-01-08T00:40:05.346Z,5.51
2018-01-08T00:41:05.338Z,5.62
2018-01-08T00:42:05.336Z,5.56
2018-01-08T00:43:05.323Z,5.56
2018-01-08T00:44:05.314Z,5.54
2018-01-08T00:45:26.313Z,5.61
2018-01-08T00:46:05.300Z,5.53
2018-01-08T00:47:05.290Z,5.56
2018-01-08T00:48:05.280Z,5.53
2018-01-08T00:49:05.275Z,5.56
2018-01-08T00:50:05.265Z,5.50
2018-01-08T00:51:26.265Z,5.56
2018-01-08T00:52:05.250Z,5.57
2018-01-08T00:53:05.244Z,5.56
2018-01-08T00:54:05.235Z,5.48
2018-01-08T00:55:05.232Z,5.56
2018-01-08T00:56:05.219Z,5.54
2018-01-08T00:57:26.221Z,5.53
2018-01-08T00:58:05.204Z,5.50
2018-01-08T00:59:05.196Z,5.57
2018-01-08T01:00:05.185Z,5.47
2018-01-08T01:01:05.178Z,5.54
2018-01-08T01:02:05.171Z,5.56
2018-01-08T01:03:26.160Z,5.57
2018-01-08T01:04:05.152Z,5.56
2018-01-08T01:05:05.148Z,5.57
2018-01-08T01:06:05.141Z,5.56
2018-01-08T01:07:05.131Z,5.56
2018-01-08T01:08:05.120Z,5.48
2018-01-08T01:09:26.122Z,5.47
2018-01-08T01:10:05.107Z,5.50
2018-01-08T01:11:05.102Z,5.47
2018-01-08T01:12:05.091Z,5.38
2018-01-08T01:13:05.079Z,5.48
2018-01-08T01:14:05.074Z,5.56
2018-01-08T01:15:26.071Z,5.41
2018-01-08T01:16:05.057Z,5.43
2018-01-08T01:17:05.050Z,5.43
2018-01-08T01:18:05.044Z,5.54
2018-01-08T01:19:05.034Z,5.57
2018-01-08T01:20:05.026Z,5.54
2018-01-08T01:21:26.029Z,5.56
2018-01-08T01:22:05.010Z,5.48
2018-01-08T01:23:05.004Z,5.48
2018-01-08T01:24:04.994Z,5.39
2018-01-08T01:25:04.988Z,5.44
2018-01-08T01:26:04.981Z,5.54
2018-01-08T01:27:25.973Z,5.56
2018-01-08T01:28:04.962Z,5.56
2018-01-08T01:29:04.956Z,5.53
2018-01-08T01:30:04.950Z,5.54
2018-01-08T01:31:04.940Z,5.56
2018-01-08T01:32:04.934Z,5.51
2018-01-08T01:33:25.929Z,5.53
2018-01-08T01:34:04.913Z,5.56
2018-01-08T01:35:04.912Z,5.47
2018-01-08T01:36:04.897Z,5.38
2018-01-08T01:37:04.899Z,5.50
2018-01-08T01:38:04.881Z,5.44
2018-01-08T01:39:25.878Z,5.44
2018-01-08T01:40:04.868Z,5.43
2018-01-08T01:41:04.859Z,5.46
2018-01-08T01:42:04.854Z,5.38
2018-01-08T01:43:04.842Z,5.39
2018-01-08T01:44:04.831Z,5.39
2018-01-08T01:45:25.833Z,5.46
2018-01-08T01:46:04.825Z,5.38
2018-01-08T01:47:04.813Z,5.39
2018-01-08T01:48:04.804Z,5.43
2018-01-08T01:49:04.796Z,5.46
2018-01-08T01:50:04.788Z,5.41
2018-01-08T01:51:25.783Z,5.41
2018-01-08T01:52:04.770Z,5.39
2018-01-08T01:53:04.761Z,5.46
2018-01-08T01:54:04.750Z,5.43
2018-01-08T01:55:04.747Z,5.51
2018-01-08T01:56:04.738Z,5.47
2018-01-08T01:57:25.735Z,5.41
2018-01-08T01:58:04.719Z,5.48
2018-01-08T01:59:04.733Z,5.46
2018-01-08T02:00:04.704Z,5.44
2018-01-08T02:01:04.697Z,5.43
2018-01-08T02:02:04.690Z,5.41
2018-01-08T02:03:25.685Z,5.39
2018-01-08T02:04:04.666Z,5.41
2018-01-08T02:05:04.666Z,5.48
2018-01-08T02:06:04.655Z,5.43
2018-01-08T02:07:04.646Z,5.43
2018-01-08T02:08:04.638Z,5.46
2018-01-08T02:09:25.639Z,5.35
2018-01-08T02:10:04.625Z,5.32
2018-01-08T02:11:04.615Z,5.30
2018-01-08T02:12:04.606Z,5.32
2018-01-08T02:13:04.598Z,5.33
2018-01-08T02:14:04.593Z,5.32
2018-01-08T02:15:25.589Z,5.32
2018-01-08T02:16:04.574Z,5.35
2018-01-08T02:17:04.567Z,5.36
2018-01-08T02:18:04.562Z,5.32
2018-01-08T02:19:04.553Z,5.35
2018-01-08T02:20:04.545Z,5.30
2018-01-08T02:21:25.548Z,5.28
2018-01-08T02:22:04.528Z,5.33
2018-01-08T02:23:04.519Z,5.20
2018-01-08T02:24:04.512Z,5.32
2018-01-08T02:25:04.498Z,5.20
2018-01-08T02:26:04.496Z,5.23
2018-01-08T02:27:25.492Z,5.29
2018-01-08T02:28:04.495Z,5.28
2018-01-08T02:29:04.466Z,5.28
2018-01-08T02:30:04.462Z,5.28
2018-01-08T02:31:04.455Z,5.28
2018-01-08T02:32:04.448Z,5.29
2018-01-08T02:33:25.445Z,5.29
2018-01-08T02:34:04.432Z,5.18
2018-01-08T02:35:04.424Z,5.32
2018-01-08T02:36:04.417Z,5.30
2018-01-08T02:37:04.406Z,5.26
2018-01-08T02:38:04.395Z,5.35
2018-01-08T02:39:25.390Z,5.32
2018-01-08T02:40:04.384Z,5.38
2018-01-08T02:41:04.375Z,5.28
2018-01-08T02:42:04.368Z,5.32
2018-01-08T02:43:04.362Z,5.38
2018-01-08T02:44:04.355Z,5.30
2018-01-08T02:45:25.347Z,5.32
2018-01-08T02:46:04.333Z,5.23
2018-01-08T02:47:04.325Z,5.30
2018-01-08T02:48:04.316Z,5.21
2018-01-08T02:49:04.304Z,5.26
2018-01-08T02:50:04.304Z,5.28
2018-01-08T02:51:25.297Z,5.25
2018-01-08T02:52:04.286Z,5.26
2018-01-08T02:53:04.275Z,5.36
2018-01-08T02:54:04.268Z,5.28
2018-01-08T02:55:04.260Z,5.30
2018-01-08T02:56:04.253Z,5.33
2018-01-08T02:57:25.256Z,5.30
2018-01-08T02:58:04.231Z,5.32
2018-01-08T02:59:04.225Z,5.29
2018-01-08T03:00:04.216Z,5.33
2018-01-08T03:01:04.211Z,5.29
2018-01-08T03:02:04.204Z,5.26
2018-01-08T03:03:25.198Z,5.33
2018-01-08T03:04:04.189Z,5.33
2018-01-08T03:05:04.181Z,5.28
2018-01-08T03:06:04.172Z,5.30
2018-01-08T03:07:04.165Z,5.26
2018-01-08T03:08:04.154Z,5.32
2018-01-08T03:09:25.152Z,5.32
2018-01-08T03:10:04.134Z,5.35
2018-01-08T03:11:04.130Z,5.36
2018-01-08T03:12:04.120Z,5.41
2018-01-08T03:13:04.112Z,5.36
2018-01-08T03:14:04.105Z,5.35
2018-01-08T03:15:25.099Z,5.32
2018-01-08T03:16:04.084Z,5.30
2018-01-08T03:17:04.079Z,5.28
2018-01-08T03:18:04.073Z,5.29
2018-01-08T03:19:04.062Z,5.26
2018-01-08T03:20:04.050Z,5.26
2018-01-08T03:21:25.053Z,5.30
2018-01-08T03:22:04.041Z,5.29
2018-01-08T03:23:04.030Z,5.30
2018-01-08T03:24:04.030Z,5.29
2018-01-08T03:25:04.013Z,5.33
2018-01-08T03:26:04.004Z,5.39
2018-01-08T03:27:25.002Z,5.35
2018-01-08T03:28:03.990Z,5.35
2018-01-08T03:29:03.982Z,5.35
2018-01-08T03:30:03.971Z,5.26
2018-01-08T03:31:03.963Z,5.23
2018-01-08T03:32:03.957Z,5.32
2018-01-08T03:33:24.955Z,5.28
2018-01-08T03:34:03.943Z,5.32
2018-01-08T03:35:03.934Z,5.36
2018-01-08T03:36:03.926Z,5.25
2018-01-08T03:37:03.916Z,5.36
2018-01-08T03:38:03.911Z,5.32
2018-01-08T03:39:24.909Z,5.32
2018-01-08T03:40:03.891Z,5.41
2018-01-08T03:41:03.883Z,5.32
2018-01-08T03:42:03.878Z,5.33
2018-01-08T03:43:03.869Z,5.32
2018-01-08T03:44:03.860Z,5.36
2018-01-08T03:45:24.856Z,5.30
2018-01-08T03:46:03.844Z,5.38
2018-01-08T03:47:03.832Z,5.46
2018-01-08T03:48:03.828Z,5.50
2018-01-08T03:49:03.823Z,5.43
2018-01-08T03:50:03.813Z,5.44
2018-01-08T03:51:24.808Z,5.48
2018-01-08T03:52:03.797Z,5.48
2018-01-08T03:53:03.795Z,5.46
2018-01-08T03:54:03.788Z,5.51
2018-01-08T03:55:03.772Z,5.46
2018-01-08T03:56:03.765Z,5.43
2018-01-08T03:57:24.760Z,5.32
2018-01-08T03:58:03.747Z,5.32
2018-01-08T03:59:03.738Z,5.38
2018-01-08T04:00:03.730Z,5.30
2018-01-08T04:01:03.720Z,5.30
2018-01-08T04:02:03.708Z,5.28
2018-01-08T04:03:24.713Z,5.30
2018-01-08T04:04:03.701Z,5.32
2018-01-08T04:05:03.690Z,5.29
2018-01-08T04:06:03.689Z,5.29
2018-01-08T04:07:03.674Z,5.30
2018-01-08T04:08:03.667Z,5.26
2018-01-08T04:09:24.663Z,5.29
2018-01-08T04:10:03.649Z,5.32
2018-01-08T04:11:03.638Z,5.25
2018-01-08T04:12:03.636Z,5.29
2018-01-08T04:13:03.631Z,5.28
2018-01-08T04:14:03.622Z,5.23
2018-01-08T04:15:24.615Z,5.29
2018-01-08T04:16:03.600Z,5.26
2018-01-08T04:17:03.595Z,5.29
2018-01-08T04:18:03.584Z,5.28
2018-01-08T04:19:03.577Z,5.28
2018-01-08T04:20:03.567Z,5.26
2018-01-08T04:21:24.567Z,5.20
2018-01-08T04:22:03.555Z,5.29
2018-01-08T04:23:03.544Z,5.26
2018-01-08T04:24:03.545Z,5.28
2018-01-08T04:25:03.531Z,5.28
2018-01-08T04:26:03.522Z,5.29
2018-01-08T04:27:24.516Z,5.29
2018-01-08T04:28:03.506Z,5.30
2018-01-08T04:29:03.497Z,5.29
2018-01-08T04:30:03.491Z,5.26
2018-01-08T04:31:03.479Z,5.26
2018-01-08T04:32:03.473Z,5.30
2018-01-08T04:33:25.221Z,5.20
2018-01-08T04:34:03.461Z,5.17
2018-01-08T04:35:03.453Z,5.18
2018-01-08T04:36:03.444Z,5.29
2018-01-08T04:37:03.430Z,5.20
2018-01-08T04:38:03.426Z,5.29
2018-01-08T04:39:24.418Z,5.17
2018-01-08T04:40:03.407Z,5.21
2018-01-08T04:41:03.402Z,5.15
2018-01-08T04:42:03.394Z,5.32
2018-01-08T04:43:03.383Z,5.25
2018-01-08T04:44:03.378Z,5.26
2018-01-08T04:45:24.373Z,5.29
2018-01-08T04:46:03.367Z,5.20
2018-01-08T04:47:03.352Z,5.21
2018-01-08T04:48:03.349Z,5.29
2018-01-08T04:49:03.336Z,5.30
2018-01-08T04:50:03.330Z,5.36
2018-01-08T04:51:24.322Z,5.30
2018-01-08T04:52:03.317Z,5.29
2018-01-08T04:53:03.305Z,5.35
2018-01-08T04:54:03.297Z,5.25
2018-01-08T04:55:03.290Z,5.33
2018-01-08T04:56:03.281Z,5.25
2018-01-08T04:57:24.278Z,5.32
2018-01-08T04:58:03.267Z,5.38
2018-01-08T04:59:03.258Z,5.33
2018-01-08T05:00:03.252Z,5.32
2018-01-08T05:01:03.245Z,5.28
2018-01-08T05:02:03.234Z,5.35
2018-01-08T05:03:24.232Z,5.32
2018-01-08T05:04:03.219Z,5.28
2018-01-08T05:05:03.215Z,5.35
2018-01-08T05:06:03.205Z,5.29
2018-01-08T05:07:03.220Z,5.28
2018-01-08T05:08:03.182Z,5.35
2018-01-08T05:09:24.187Z,5.28
2018-01-08T05:10:03.170Z,5.28
2018-01-08T05:11:03.163Z,5.36
2018-01-08T05:12:03.153Z,5.26
2018-01-08T05:13:03.147Z,5.33
2018-01-08T05:14:03.142Z,5.25
2018-01-08T05:15:24.137Z,5.39
2018-01-08T05:16:03.123Z,5.33
2018-01-08T05:17:03.116Z,5.41
2018-01-08T05:18:03.108Z,5.38
2018-01-08T05:19:03.100Z,5.35
2018-01-08T05:20:03.095Z,5.30
2018-01-08T05:21:24.092Z,5.30
2018-01-08T05:22:03.078Z,5.30
2018-01-08T05:23:03.065Z,5.35
2018-01-08T05:24:03.062Z,5.35
2018-01-08T05:25:03.053Z,5.35
2018-01-08T05:26:03.046Z,5.29
2018-01-08T05:27:24.043Z,5.29
2018-01-08T05:28:03.026Z,5.36
2018-01-08T05:29:03.015Z,5.33
2018-01-08T05:30:03.015Z,5.33
2018-01-08T05:31:03.006Z,5.33
2018-01-08T05:32:02.995Z,5.47
2018-01-08T05:33:23.993Z,5.46
2018-01-08T05:34:02.980Z,5.39
2018-01-08T05:35:02.973Z,5.50
2018-01-08T05:36:02.966Z,5.50
2018-01-08T05:37:02.961Z,5.43
2018-01-08T05:38:02.949Z,5.44
2018-01-08T05:39:23.942Z,5.39
2018-01-08T05:40:02.953Z,5.41
2018-01-08T05:41:02.920Z,5.39
2018-01-08T05:42:02.914Z,5.50
2018-01-08T05:43:02.910Z,5.43
2018-01-08T05:44:02.903Z,5.47
2018-01-08T05:45:23.902Z,5.48
2018-01-08T05:46:02.893Z,5.41
2018-01-08T05:47:02.897Z,5.48
2018-01-08T05:48:02.887Z,5.43
2018-01-08T05:49:02.870Z,5.41
2018-01-08T05:50:02.877Z,5.43
2018-01-08T05:51:23.864Z,5.36
2018-01-08T05:52:02.880Z,5.48
2018-01-08T05:53:02.828Z,5.43
2018-01-08T05:54:02.844Z,5.39
2018-01-08T05:55:02.811Z,5.50
2018-01-08T05:56:02.815Z,5.36
2018-01-08T05:57:23.805Z,5.36
2018-01-08T05:58:02.788Z,5.44
2018-01-08T05:59:02.785Z,5.44
2018-01-08T06:00:02.777Z,5.51
2018-01-08T06:01:02.769Z,5.43
2018-01-08T06:02:02.763Z,5.47
2018-01-08T06:03:23.754Z,5.41
2018-01-08T06:04:02.752Z,5.44
2018-01-08T06:05:02.738Z,5.50
2018-01-08T06:06:02.738Z,5.44
2018-01-08T06:07:02.734Z,5.51
2018-01-08T06:08:02.710Z,5.47
2018-01-08T06:09:23.716Z,5.44
2018-01-08T06:10:02.696Z,5.50
2018-01-08T06:11:02.691Z,5.47
2018-01-08T06:12:02.682Z,5.53
2018-01-08T06:13:02.675Z,5.50
2018-01-08T06:14:02.664Z,5.41
2018-01-08T06:15:23.664Z,5.47
2018-01-08T06:16:02.653Z,5.44
2018-01-08T06:17:02.651Z,5.39
2018-01-08T06:18:02.636Z,5.43
2018-01-08T06:19:02.631Z,5.46
2018-01-08T06:20:02.620Z,5.39
2018-01-08T06:21:23.617Z,5.44
2018-01-08T06:22:02.604Z,5.43
2018-01-08T06:23:02.595Z,5.47
2018-01-08T06:24:02.589Z,5.38
2018-01-08T06:25:02.582Z,5.44
2018-01-08T06:26:02.574Z,5.50
2018-01-08T06:27:24.253Z,5.48
2018-01-08T06:28:02.559Z,5.33
2018-01-08T06:29:02.550Z,5.32
2018-01-08T06:30:02.540Z,5.47
2018-01-08T06:31:02.533Z,5.43
2018-01-08T06:32:02.527Z,5.47
2018-01-08T06:33:23.528Z,5.48
2018-01-08T06:34:02.510Z,5.48
2018-01-08T06:35:02.502Z,5.46
2018-01-08T06:36:02.499Z,5.44
2018-01-08T06:37:02.487Z,5.46
2018-01-08T06:38:02.479Z,5.39
2018-01-08T06:39:23.479Z,5.39
2018-01-08T06:40:02.466Z,5.39
2018-01-08T06:41:02.456Z,5.43
2018-01-08T06:42:02.451Z,5.44
2018-01-08T06:43:02.441Z,5.36
2018-01-08T06:44:02.434Z,5.39
2018-01-08T06:45:23.435Z,5.35
2018-01-08T06:46:02.418Z,5.36
2018-01-08T06:47:02.414Z,5.35
2018-01-08T06:48:02.403Z,5.32
2018-01-08T06:49:02.394Z,5.35
2018-01-08T06:50:02.387Z,5.29
2018-01-08T06:51:23.383Z,5.30
2018-01-08T06:52:02.370Z,5.32
2018-01-08T06:53:02.363Z,5.32
2018-01-08T06:54:02.355Z,5.32
2018-01-08T06:55:02.344Z,5.28
2018-01-08T06:56:02.339Z,5.36
2018-01-08T06:57:23.338Z,5.30
2018-01-08T06:58:02.324Z,5.33
2018-01-08T06:59:02.316Z,5.29
2018-01-08T07:00:02.311Z,5.28
2018-01-08T07:01:02.300Z,5.36
2018-01-08T07:02:02.294Z,5.35
2018-01-08T07:03:24.257Z,5.39
2018-01-08T07:04:02.276Z,5.41
2018-01-08T07:05:02.262Z,5.41
2018-01-08T07:06:02.256Z,5.43
2018-01-08T07:07:02.767Z,5.43
2018-01-08T07:08:02.244Z,5.30
2018-01-08T07:09:23.252Z,5.29
2018-01-08T07:10:02.228Z,5.43
2018-01-08T07:11:02.219Z,5.46
2018-01-08T07:12:02.209Z,5.43
2018-01-08T07:13:02.204Z,5.33
2018-01-08T07:14:02.195Z,5.41
2018-01-08T07:15:23.192Z,5.38
2018-01-08T07:16:02.178Z,5.32
2018-01-08T07:17:02.172Z,5.23
2018-01-08T07:18:02.164Z,5.35
2018-01-08T07:19:02.154Z,5.30
2018-01-08T07:20:02.149Z,5.29
2018-01-08T07:21:23.156Z,5.35
2018-01-08T07:22:02.131Z,5.30
2018-01-08T07:23:02.124Z,5.35
2018-01-08T07:24:02.118Z,5.39
2018-01-08T07:25:02.107Z,5.46
2018-01-08T07:26:02.096Z,5.38
2018-01-08T07:27:23.095Z,5.51
2018-01-08T07:28:02.082Z,5.47
2018-01-08T07:29:02.075Z,5.47
2018-01-08T07:30:02.068Z,5.44
2018-01-08T07:31:02.061Z,5.32
2018-01-08T07:32:02.048Z,5.29
2018-01-08T07:33:23.061Z,5.36
2018-01-08T07:34:02.036Z,5.28
2018-01-08T07:35:02.029Z,5.26
2018-01-08T07:36:02.016Z,5.28
2018-01-08T07:37:02.013Z,5.36
2018-01-08T07:38:02.007Z,5.32
2018-01-08T07:39:23.003Z,5.32
2018-01-08T07:40:01.987Z,5.44
2018-01-08T07:41:01.978Z,5.53
2018-01-08T07:42:01.970Z,5.43
2018-01-08T07:43:01.961Z,5.46
2018-01-08T07:44:01.956Z,5.46
2018-01-08T07:45:22.956Z,5.43
2018-01-08T07:46:01.938Z,5.41
2018-01-08T07:47:01.930Z,5.35
2018-01-08T07:48:02.859Z,5.36
2018-01-08T07:49:01.918Z,5.29
2018-01-08T07:50:01.908Z,5.35
2018-01-08T07:51:22.902Z,5.43
2018-01-08T07:52:01.896Z,5.41
2018-01-08T07:53:01.884Z,5.47
2018-01-08T07:54:01.877Z,5.48
2018-01-08T07:55:02.853Z,5.43
2018-01-08T07:56:01.860Z,5.38
2018-01-08T07:57:22.861Z,5.43
2018-01-08T07:58:01.843Z,5.36
2018-01-08T07:59:01.840Z,5.39
2018-01-08T08:00:01.828Z,5.44
2018-01-08T08:01:01.819Z,5.43
2018-01-08T08:02:01.816Z,5.38
2018-01-08T08:03:22.812Z,5.41
2018-01-08T08:04:01.795Z,5.47
2018-01-08T08:05:01.788Z,5.46
2018-01-08T08:06:01.788Z,5.56
2018-01-08T08:07:01.769Z,5.43
2018-01-08T08:08:01.763Z,5.46
2018-01-08T08:09:22.761Z,5.46
2018-01-08T08:10:01.749Z,5.46
2018-01-08T08:11:01.740Z,5.50
2018-01-08T08:12:01.731Z,5.39
2018-01-08T08:13:01.723Z,5.44
2018-01-08T08:14:01.721Z,5.47
2018-01-08T08:15:22.712Z,5.56
2018-01-08T08:16:01.703Z,5.47
2018-01-08T08:17:01.694Z,5.54
2018-01-08T08:18:01.685Z,5.47
2018-01-08T08:19:01.678Z,5.53
2018-01-08T08:20:01.675Z,5.47
2018-01-08T08:21:22.668Z,5.54
2018-01-08T08:22:01.668Z,5.53
2018-01-08T08:23:01.641Z,5.53
2018-01-08T08:24:01.644Z,5.48
2018-01-08T08:25:01.633Z,5.56
2018-01-08T08:26:01.630Z,5.53
2018-01-08T08:27:22.617Z,5.61
2018-01-08T08:28:01.610Z,5.53
2018-01-08T08:29:01.600Z,5.56
2018-01-08T08:30:01.593Z,5.48
2018-01-08T08:31:01.586Z,5.54
2018-01-08T08:32:01.574Z,5.54
2018-01-08T08:33:22.574Z,5.57
2018-01-08T08:34:01.563Z,5.64
2018-01-08T08:35:01.557Z,5.64
2018-01-08T08:36:01.544Z,5.64
2018-01-08T08:37:01.536Z,5.69
2018-01-08T08:38:01.533Z,5.68
2018-01-08T08:39:22.526Z,5.66
2018-01-08T08:40:01.512Z,5.64
2018-01-08T08:41:01.505Z,5.61
2018-01-08T08:42:01.510Z,5.65
2018-01-08T08:43:02.292Z,5.59
2018-01-08T08:44:01.480Z,5.69
2018-01-08T08:45:22.479Z,5.64
2018-01-08T08:46:01.467Z,5.61
2018-01-08T08:47:01.468Z,5.64
2018-01-08T08:48:01.445Z,5.66
2018-01-08T08:49:01.443Z,5.73
2018-01-08T08:50:01.434Z,5.66
2018-01-08T08:51:22.432Z,5.69
2018-01-08T08:52:01.422Z,5.65
2018-01-08T08:53:01.410Z,5.65
2018-01-08T08:54:01.403Z,5.72
2018-01-08T08:55:01.633Z,5.71
2018-01-08T08:56:01.390Z,5.65
2018-01-08T08:57:22.390Z,5.65
2018-01-08T08:58:01.372Z,5.72
2018-01-08T08:59:01.365Z,5.72
2018-01-08T09:00:01.354Z,5.68
2018-01-08T09:01:01.350Z,5.68
2018-01-08T09:02:01.870Z,5.71
2018-01-08T09:03:22.343Z,5.73
2018-01-08T09:04:01.322Z,5.66
2018-01-08T09:05:01.317Z,5.69
2018-01-08T09:06:01.317Z,5.69
2018-01-08T09:07:01.302Z,5.61
2018-01-08T09:08:01.296Z,5.75
2018-01-08T09:09:22.301Z,5.66
2018-01-08T09:10:01.280Z,5.66
2018-01-08T09:11:01.273Z,5.68
2018-01-08T09:12:01.264Z,5.64
2018-01-08T09:13:01.258Z,5.61
2018-01-08T09:14:01.248Z,5.53
2018-01-08T09:15:22.248Z,5.64
2018-01-08T09:16:01.234Z,5.51
2018-01-08T09:17:01.226Z,5.66
2018-01-08T09:18:01.221Z,5.68
2018-01-08T09:19:01.211Z,5.61
2018-01-08T09:20:01.214Z,5.69
2018-01-08T09:21:22.204Z,5.71
2018-01-08T09:22:01.189Z,5.66
2018-01-08T09:23:01.180Z,5.66
2018-01-08T09:24:01.172Z,5.61
2018-01-08T09:25:01.164Z,5.71
2018-01-08T09:26:01.157Z,5.69
2018-01-08T09:27:22.156Z,5.65
2018-01-08T09:28:01.143Z,5.68
2018-01-08T09:29:01.136Z,5.72
2018-01-08T09:30:01.128Z,5.73
2018-01-08T09:31:01.120Z,5.80
2018-01-08T09:32:01.111Z,5.76
2018-01-08T09:33:22.113Z,5.73
2018-01-08T09:34:01.097Z,5.72
2018-01-08T09:35:01.090Z,5.73
2018-01-08T09:36:01.083Z,5.75
2018-01-08T09:37:01.074Z,5.72
2018-01-08T09:38:01.069Z,5.76
2018-01-08T09:39:22.070Z,5.76
2018-01-08T09:40:01.053Z,5.76
2018-01-08T09:41:01.045Z,5.75
2018-01-08T09:42:01.049Z,5.79
2018-01-08T09:43:01.028Z,5.79
2018-01-08T09:44:01.029Z,5.82
2018-01-08T09:45:22.843Z,5.82
2018-01-08T09:46:01.001Z,5.72
2018-01-08T09:47:01.011Z,5.69
2018-01-08T09:48:00.991Z,5.86
2018-01-08T09:49:00.984Z,5.84
2018-01-08T09:50:00.979Z,5.90
2018-01-08T09:51:21.968Z,5.89
2018-01-08T09:52:00.960Z,5.83
2018-01-08T09:53:00.953Z,5.76
2018-01-08T09:54:00.946Z,5.84
2018-01-08T09:55:00.937Z,5.79
2018-01-08T09:56:00.929Z,5.89
2018-01-08T09:57:21.934Z,5.86
2018-01-08T09:58:00.917Z,5.98
2018-01-08T09:59:00.910Z,5.89
2018-01-08T10:00:00.901Z,6.04
2018-01-08T10:01:00.895Z,6.12
2018-01-08T10:02:00.887Z,6.02
2018-01-08T10:03:21.890Z,6.01
2018-01-08T10:04:00.867Z,5.97
2018-01-08T10:05:00.866Z,5.99
2018-01-08T10:06:00.859Z,6.07
2018-01-08T10:07:00.851Z,6.08
2018-01-08T10:08:00.840Z,6.12
2018-01-08T10:09:21.838Z,6.08
2018-01-08T10:10:00.828Z,6.16
2018-01-08T10:11:00.823Z,6.12
2018-01-08T10:12:00.808Z,6.16
2018-01-08T10:13:00.804Z,6.20
2018-01-08T10:14:00.801Z,6.17
2018-01-08T10:15:22.309Z,6.20
2018-01-08T10:16:00.777Z,6.22
2018-01-08T10:17:00.777Z,6.16
2018-01-08T10:18:00.768Z,6.24
2018-01-08T10:19:00.761Z,6.19
2018-01-08T10:20:00.749Z,6.20
2018-01-08T10:21:21.750Z,6.20
2018-01-08T10:22:00.751Z,6.22
2018-01-08T10:23:00.738Z,6.19
2018-01-08T10:24:00.721Z,6.22
2018-01-08T10:25:00.718Z,6.19
2018-01-08T10:26:00.705Z,6.27
2018-01-08T10:27:21.708Z,6.26
2018-01-08T10:28:00.699Z,6.31
2018-01-08T10:29:00.687Z,6.30
2018-01-08T10:30:00.680Z,6.33
2018-01-08T10:31:00.685Z,6.36
2018-01-08T10:32:00.667Z,6.33
2018-01-08T10:33:21.699Z,6.38
2018-01-08T10:34:00.652Z,6.39
2018-01-08T10:35:00.680Z,6.39
2018-01-08T10:36:00.634Z,6.36
2018-01-08T10:37:00.636Z,6.41
2018-01-08T10:38:00.623Z,6.38
2018-01-08T10:39:21.620Z,6.35
2018-01-08T10:40:00.610Z,6.33
2018-01-08T10:41:00.600Z,6.36
2018-01-08T10:42:00.593Z,6.42
2018-01-08T10:43:00.586Z,6.41
2018-01-08T10:44:00.580Z,6.48
2018-01-08T10:45:21.578Z,6.52
2018-01-08T10:46:00.565Z,6.48
2018-01-08T10:47:00.571Z,6.48
2018-01-08T10:48:00.549Z,6.45
2018-01-08T10:49:00.542Z,6.56
2018-01-08T10:50:00.536Z,6.45
2018-01-08T10:51:21.535Z,6.60
2018-01-08T10:52:00.521Z,6.56
2018-01-08T10:53:00.516Z,6.59
2018-01-08T10:54:00.509Z,6.60
2018-01-08T10:55:00.500Z,6.67
2018-01-08T10:56:00.518Z,6.60
2018-01-08T10:57:21.491Z,6.67
2018-01-08T10:58:00.480Z,6.66
2018-01-08T10:59:00.473Z,6.62
2018-01-08T11:00:00.466Z,6.69
2018-01-08T11:01:00.464Z,6.64
2018-01-08T11:02:00.714Z,6.77
2018-01-08T11:03:21.451Z,6.72
2018-01-08T11:04:00.436Z,6.70
2018-01-08T11:05:00.432Z,6.77
2018-01-08T11:06:00.425Z,6.70
2018-01-08T11:07:00.433Z,6.70
2018-01-08T11:08:00.408Z,6.75
2018-01-08T11:09:21.408Z,6.75
2018-01-08T11:10:00.395Z,6.75
2018-01-08T11:11:00.382Z,6.75
2018-01-08T11:12:00.380Z,6.78
2018-01-08T11:13:00.374Z,6.85
2018-01-08T11:14:00.365Z,6.88
2018-01-08T11:15:21.369Z,6.92
2018-01-08T11:16:00.356Z,6.96
2018-01-08T11:17:00.340Z,7.11
2018-01-08T11:18:00.341Z,7.10
2018-01-08T11:19:00.333Z,7.11
2018-01-08T11:20:00.324Z,7.17
2018-01-08T11:21:21.317Z,7.21
2018-01-08T11:22:00.310Z,7.20
2018-01-08T11:23:00.302Z,7.31
2018-01-08T11:24:00.299Z,7.35
2018-01-08T11:25:00.288Z,7.35
2018-01-08T11:26:00.281Z,7.39
2018-01-08T11:27:21.280Z,7.36
2018-01-08T11:28:00.263Z,7.51
2018-01-08T11:29:00.258Z,7.39
2018-01-08T11:30:00.252Z,7.50
2018-01-08T11:31:00.240Z,7.40
2018-01-08T11:32:00.235Z,7.42
2018-01-08T11:33:21.237Z,7.40
2018-01-08T11:34:00.224Z,7.43
2018-01-08T11:35:00.215Z,7.54
2018-01-08T11:36:00.208Z,7.56
2018-01-08T11:37:00.205Z,7.45
2018-01-08T11:38:00.196Z,7.53
2018-01-08T11:39:21.197Z,7.56
2018-01-08T11:40:00.180Z,7.56
2018-01-08T11:41:00.174Z,7.54
2018-01-08T11:42:00.167Z,7.53
2018-01-08T11:43:00.160Z,7.57
2018-01-08T11:44:00.154Z,7.54
2018-01-08T11:45:21.152Z,7.53
2018-01-08T11:46:00.137Z,7.57
2018-01-08T11:47:00.140Z,7.56
2018-01-08T11:48:00.138Z,7.58
2018-01-08T11:49:00.119Z,7.56
2018-01-08T11:50:00.126Z,7.56
2018-01-08T11:51:21.115Z,7.57
2018-01-08T11:52:00.132Z,7.57
2018-01-08T11:53:00.097Z,7.63
2018-01-08T11:54:00.094Z,7.58
2018-01-08T11:55:00.085Z,7.66
2018-01-08T11:56:00.070Z,7.67
2018-01-08T11:57:21.073Z,7.63
2018-01-08T11:58:00.051Z,7.66
2018-01-08T11:59:00.045Z,7.72
2018-01-08T12:00:00.049Z,7.69
2018-01-08T12:01:00.063Z,7.66
2018-01-08T12:02:00.032Z,7.69
2018-01-08T12:03:21.026Z,7.67
2018-01-08T12:04:00.018Z,7.66
2018-01-08T12:05:00.012Z,7.61
2018-01-08T12:06:00.000Z,7.63
2018-01-08T12:06:59.991Z,7.67
2018-01-08T12:07:59.982Z,7.66
2018-01-08T12:09:20.979Z,7.67
2018-01-08T12:09:59.972Z,7.69
2018-01-08T12:10:59.967Z,7.69
2018-01-08T12:11:59.959Z,7.67
2018-01-08T12:12:59.955Z,7.67
2018-01-08T12:13:59.948Z,7.61
2018-01-08T12:15:20.972Z,7.66
2018-01-08T12:15:59.932Z,7.69
2018-01-08T12:16:59.922Z,7.61
2018-01-08T12:17:59.946Z,7.66
2018-01-08T12:18:59.908Z,7.67
2018-01-08T12:19:59.907Z,7.63
2018-01-08T12:21:20.903Z,7.61
2018-01-08T12:21:59.889Z,7.63
2018-01-08T12:22:59.877Z,7.63
2018-01-08T12:23:59.873Z,7.66
2018-01-08T12:24:59.868Z,7.66
2018-01-08T12:25:59.867Z,7.67
2018-01-08T12:27:20.858Z,7.66
2018-01-08T12:27:59.845Z,7.66
2018-01-08T12:28:59.837Z,7.73
2018-01-08T12:29:59.833Z,7.73
2018-01-08T12:30:59.831Z,7.79
2018-01-08T12:31:59.818Z,7.76
2018-01-08T12:33:20.813Z,7.73
2018-01-08T12:33:59.805Z,7.76
2018-01-08T12:34:59.796Z,7.83
2018-01-08T12:35:59.833Z,7.88
2018-01-08T12:36:59.782Z,7.79
2018-01-08T12:37:59.776Z,7.77
2018-01-08T12:39:20.778Z,7.80
2018-01-08T12:39:59.761Z,7.91
2018-01-08T12:40:59.756Z,7.83
2018-01-08T12:41:59.747Z,7.88
2018-01-08T12:42:59.740Z,7.83
2018-01-08T12:43:59.734Z,7.90
2018-01-08T12:45:20.739Z,7.85
2018-01-08T12:45:59.721Z,7.93
2018-01-08T12:46:59.713Z,7.83
2018-01-08T12:47:59.706Z,7.94
2018-01-08T12:48:59.700Z,7.85
2018-01-08T12:49:59.708Z,7.85
2018-01-08T12:51:20.691Z,7.93
2018-01-08T12:51:59.683Z,7.90
2018-01-08T12:52:59.671Z,7.93
2018-01-08T12:53:59.664Z,7.94
2018-01-08T12:54:59.657Z,7.97
2018-01-08T12:55:59.650Z,8.00
2018-01-08T12:57:20.651Z,7.88
2018-01-08T12:57:59.632Z,7.90
2018-01-08T12:58:59.630Z,8.00
2018-01-08T12:59:59.619Z,7.94
2018-01-08T13:00:59.639Z,8.00
2018-01-08T13:01:59.609Z,7.97
2018-01-08T13:03:20.607Z,8.05
2018-01-08T13:03:59.595Z,8.01
2018-01-08T13:04:59.588Z,8.05
2018-01-08T13:05:59.583Z,8.03
2018-01-08T13:06:59.573Z,7.98
2018-01-08T13:07:59.570Z,8.00
2018-01-08T13:09:20.578Z,8.01
2018-01-08T13:09:59.603Z,8.01
2018-01-08T13:10:59.544Z,8.01
2018-01-08T13:11:59.543Z,8.05
2018-01-08T13:12:59.534Z,8.00
2018-01-08T13:13:59.525Z,7.93
2018-01-08T13:15:20.527Z,8.01
2018-01-08T13:15:59.512Z,8.06
2018-01-08T13:16:59.504Z,8.00
2018-01-08T13:17:59.500Z,8.08